Time;durP1;ratioP1;P1;durP2;ratioP2;P2;SDS_P1;SDS_P2;PMS_P1;PMS_P2;Temp;Humidity;BMP_temperature;BMP_pressure;BME280_temperature;BME280_humidity;BME280_pressure;Samples;Min_cycle;Max_cycle;Signal;HPM_P1;HPM_P2
2020/12/18 00:01:20;;;;;;;10.53;6.77;;;7.00;99.90;;;;;;5051184;28;20523;-75
2020/12/18 00:03:47;;;;;;;10.70;7.00;;;7.10;99.90;;;;;;5050780;28;20481;-75
2020/12/18 00:06:12;;;;;;;7.70;7.00;;;7.10;99.90;;;;;;5050751;28;20798;-75
2020/12/18 00:08:39;;;;;;;9.77;7.53;;;7.10;99.90;;;;;;5051623;28;20445;-75
2020/12/18 00:11:04;;;;;;;12.20;7.17;;;7.10;99.90;;;;;;5052323;28;20173;-75
2020/12/18 00:13:30;;;;;;;10.77;6.90;;;7.10;99.90;;;;;;5050976;28;20427;-75
2020/12/18 00:15:56;;;;;;;15.37;7.80;;;7.10;99.90;;;;;;5052211;28;20191;-76
2020/12/18 00:18:22;;;;;;;7.10;6.40;;;7.10;99.90;;;;;;5050562;28;20185;-76
2020/12/18 00:20:50;;;;;;;10.33;6.67;;;7.00;99.90;;;;;;5051845;28;20215;-75
2020/12/18 00:23:15;;;;;;;10.20;6.17;;;7.00;99.90;;;;;;5050952;28;20189;-75
2020/12/18 00:25:46;;;;;;;9.37;6.83;;;7.00;99.90;;;;;;5052114;28;20521;-75
2020/12/18 00:28:13;;;;;;;13.40;8.23;;;7.00;99.90;;;;;;5051451;28;20219;-75
2020/12/18 00:30:40;;;;;;;14.57;8.30;;;7.00;99.90;;;;;;5040774;28;20442;-75
2020/12/18 00:33:06;;;;;;;10.27;7.33;;;6.90;99.90;;;;;;5049500;28;20602;-75
2020/12/18 00:35:31;;;;;;;8.17;7.20;;;6.90;99.90;;;;;;5051756;28;20767;-75
2020/12/18 00:37:57;;;;;;;9.43;7.00;;;6.90;99.90;;;;;;5046570;28;20440;-76
2020/12/18 00:40:23;;;;;;;7.87;6.93;;;7.00;99.90;;;;;;5050665;28;20172;-76
2020/12/18 00:42:48;;;;;;;13.90;6.10;;;7.00;99.90;;;;;;5051851;28;20507;-75
2020/12/18 00:45:14;;;;;;;12.10;8.07;;;6.90;99.90;;;;;;5050081;28;20642;-75
2020/12/18 00:47:40;;;;;;;13.07;8.33;;;6.90;99.90;;;;;;5049222;28;20208;-75
2020/12/18 00:50:06;;;;;;;10.80;7.93;;;6.90;99.90;;;;;;5050051;28;20610;-75
2020/12/18 00:52:31;;;;;;;16.57;7.97;;;6.90;99.90;;;;;;5051329;28;20185;-75
2020/12/18 00:54:57;;;;;;;10.07;7.20;;;6.90;99.90;;;;;;5048805;28;20176;-75
2020/12/18 00:57:24;;;;;;;14.10;9.10;;;6.90;99.90;;;;;;5047281;28;20185;-76
2020/12/18 00:59:50;;;;;;;10.47;8.77;;;6.90;99.90;;;;;;5048881;28;20174;-75
2020/12/18 01:02:16;;;;;;;9.67;8.20;;;6.90;99.90;;;;;;5049655;28;20497;-75
2020/12/18 01:04:42;;;;;;;11.83;7.37;;;7.00;99.90;;;;;;5040998;28;20587;-75
2020/12/18 01:07:07;;;;;;;10.50;8.10;;;7.00;99.90;;;;;;5047914;28;20212;-75
2020/12/18 01:09:33;;;;;;;10.73;7.43;;;7.00;99.90;;;;;;5051112;28;20603;-75
2020/12/18 01:11:59;;;;;;;12.20;8.40;;;7.00;99.90;;;;;;5049253;28;20194;-75
2020/12/18 01:14:25;;;;;;;11.37;8.20;;;7.00;99.90;;;;;;5049166;28;20287;-75
2020/12/18 01:16:54;;;;;;;9.50;7.77;;;7.00;99.90;;;;;;5050265;28;20685;-75
2020/12/18 01:19:20;;;;;;;13.27;8.17;;;7.00;99.90;;;;;;5047944;28;20611;-75
2020/12/18 01:21:47;;;;;;;8.73;7.90;;;7.00;99.90;;;;;;5049639;28;20463;-75
2020/12/18 01:24:13;;;;;;;8.73;7.70;;;7.00;99.90;;;;;;5049191;28;20423;-75
2020/12/18 01:26:39;;;;;;;11.70;8.10;;;7.00;99.90;;;;;;5047787;28;20774;-75
2020/12/18 01:29:05;;;;;;;10.13;8.23;;;7.00;99.90;;;;;;5049248;28;20431;-75
2020/12/18 01:31:30;;;;;;;9.00;7.60;;;7.00;99.90;;;;;;5048868;28;20173;-75
2020/12/18 01:33:56;;;;;;;9.83;7.27;;;7.00;99.90;;;;;;5049580;28;20272;-75
2020/12/18 01:36:22;;;;;;;14.77;9.00;;;7.00;99.90;;;;;;5050341;28;20184;-75
2020/12/18 01:38:48;;;;;;;13.73;8.10;;;7.10;99.90;;;;;;5046103;28;20213;-75
2020/12/18 01:41:14;;;;;;;11.23;9.77;;;7.10;99.90;;;;;;5049148;28;20941;-75
2020/12/18 01:43:40;;;;;;;14.53;8.60;;;7.10;99.90;;;;;;5048705;28;20253;-75
2020/12/18 01:46:13;;;;;;;9.87;7.70;;;7.10;99.90;;;;;;5048876;28;20243;-75
2020/12/18 01:48:40;;;;;;;13.10;8.13;;;7.10;99.90;;;;;;5048136;28;20371;-76
2020/12/18 01:51:10;;;;;;;12.70;8.60;;;7.00;99.90;;;;;;5049809;28;20518;-75
2020/12/18 01:53:38;;;;;;;10.53;7.93;;;7.10;99.90;;;;;;5050028;28;20435;-75
2020/12/18 01:56:05;;;;;;;9.37;8.10;;;7.10;99.90;;;;;;5048140;28;20772;-75
2020/12/18 01:58:37;;;;;;;8.77;7.73;;;7.00;99.90;;;;;;5049490;28;20463;-75
2020/12/18 02:01:05;;;;;;;11.50;7.13;;;7.10;99.90;;;;;;5048603;28;20936;-75
2020/12/18 02:03:31;;;;;;;12.33;8.33;;;7.00;99.90;;;;;;5049232;28;20963;-75
2020/12/18 02:06:02;;;;;;;12.60;9.13;;;7.10;99.90;;;;;;5049009;28;20459;-75
2020/12/18 02:08:32;;;;;;;9.07;7.93;;;7.10;99.90;;;;;;5048913;28;20453;-76
2020/12/18 02:10:59;;;;;;;13.87;8.00;;;7.00;99.90;;;;;;5048467;28;20423;-75
2020/12/18 02:13:25;;;;;;;13.10;8.73;;;6.90;99.90;;;;;;5047961;28;20466;-76
2020/12/18 02:15:53;;;;;;;17.53;8.80;;;6.90;99.90;;;;;;5048320;28;20428;-75
2020/12/18 02:18:23;;;;;;;8.80;7.47;;;6.90;99.90;;;;;;5047317;28;20420;-76
2020/12/18 02:20:50;;;;;;;14.10;8.83;;;6.80;99.90;;;;;;5049228;28;20431;-75
2020/12/18 02:23:16;;;;;;;10.33;8.40;;;6.80;99.90;;;;;;5049545;28;20444;-75
2020/12/18 02:25:42;;;;;;;10.17;8.37;;;6.80;99.90;;;;;;5048122;28;20435;-75
2020/12/18 02:28:09;;;;;;;11.93;8.60;;;6.80;99.90;;;;;;5048280;28;20649;-75
2020/12/18 02:30:35;;;;;;;11.83;8.40;;;6.80;99.90;;;;;;5049019;28;20741;-75
2020/12/18 02:33:05;;;;;;;14.47;8.97;;;6.80;99.90;;;;;;5048951;28;20927;-75
2020/12/18 02:35:31;;;;;;;10.90;8.97;;;6.80;99.90;;;;;;5047280;28;20666;-75
2020/12/18 02:37:57;;;;;;;15.37;10.67;;;6.80;99.90;;;;;;5049633;28;20765;-75
2020/12/18 02:40:23;;;;;;;11.07;8.03;;;6.80;99.90;;;;;;5048559;28;20462;-75
2020/12/18 02:42:49;;;;;;;12.07;8.40;;;6.80;99.90;;;;;;5046663;28;20440;-75
2020/12/18 02:45:15;;;;;;;16.33;8.70;;;6.80;99.90;;;;;;5049391;28;20997;-75
2020/12/18 02:47:40;;;;;;;14.80;9.00;;;6.90;99.90;;;;;;5046137;28;20270;-75
2020/12/18 02:50:06;;;;;;;12.50;9.77;;;6.90;99.90;;;;;;5049823;28;20173;-75
2020/12/18 02:52:32;;;;;;;9.00;8.10;;;6.90;99.90;;;;;;5043564;28;20604;-75
2020/12/18 02:54:58;;;;;;;12.50;8.87;;;6.90;99.90;;;;;;5039971;28;20187;-75
2020/12/18 02:57:24;;;;;;;11.43;8.63;;;6.90;99.90;;;;;;5046844;28;20197;-75
2020/12/18 02:59:49;;;;;;;11.03;8.93;;;6.90;99.90;;;;;;5048043;28;20196;-76
2020/12/18 03:02:15;;;;;;;13.30;7.73;;;6.90;99.90;;;;;;5047512;28;20190;-75
2020/12/18 03:04:41;;;;;;;12.37;9.20;;;6.90;99.90;;;;;;5049009;28;20264;-75
2020/12/18 03:07:06;;;;;;;10.73;9.30;;;6.90;99.90;;;;;;5050468;28;20307;-75
2020/12/18 03:09:32;;;;;;;10.70;9.30;;;6.90;99.90;;;;;;5050754;28;20194;-75
2020/12/18 03:11:58;;;;;;;9.30;8.40;;;6.90;99.90;;;;;;5052100;28;20221;-75
2020/12/18 03:14:23;;;;;;;13.50;8.67;;;6.80;99.90;;;;;;5052860;28;20215;-76
2020/12/18 03:16:49;;;;;;;11.43;8.43;;;6.80;99.90;;;;;;5051187;28;20506;-75
2020/12/18 03:19:15;;;;;;;11.40;9.70;;;6.80;99.90;;;;;;5065996;28;20778;-75
2020/12/18 03:21:40;;;;;;;11.37;8.13;;;6.80;99.90;;;;;;5051409;28;20186;-75
2020/12/18 03:24:06;;;;;;;13.40;9.53;;;6.80;99.90;;;;;;5052073;28;20185;-75
2020/12/18 03:26:32;;;;;;;15.40;10.20;;;6.80;99.90;;;;;;5051586;28;20193;-75
2020/12/18 03:28:57;;;;;;;10.63;9.57;;;6.70;99.90;;;;;;5050925;28;20192;-75
2020/12/18 03:31:23;;;;;;;12.67;9.20;;;6.70;99.90;;;;;;5052410;28;20304;-75
2020/12/18 03:33:58;;;;;;;11.50;9.60;;;6.70;99.90;;;;;;5050580;28;20186;-75
2020/12/18 03:36:24;;;;;;;13.80;8.47;;;6.70;99.90;;;;;;5049008;28;20513;-75
2020/12/18 03:38:50;;;;;;;14.80;9.13;;;6.70;99.90;;;;;;5051722;28;20438;-75
2020/12/18 03:41:16;;;;;;;9.37;8.30;;;6.70;99.90;;;;;;5051867;28;20475;-75
2020/12/18 03:43:43;;;;;;;11.33;9.07;;;6.70;99.90;;;;;;5053100;28;20234;-75
2020/12/18 03:46:10;;;;;;;10.70;8.30;;;6.70;99.90;;;;;;5052102;28;20200;-75
2020/12/18 03:48:35;;;;;;;10.77;9.10;;;6.70;99.90;;;;;;5049102;28;20449;-75
2020/12/18 03:51:01;;;;;;;11.03;8.57;;;6.80;99.90;;;;;;5049964;28;20427;-75
2020/12/18 03:53:27;;;;;;;11.90;10.00;;;6.80;99.90;;;;;;5052304;28;20189;-75
2020/12/18 03:55:52;;;;;;;12.30;8.07;;;6.80;99.90;;;;;;5050498;28;20183;-75
2020/12/18 03:58:18;;;;;;;12.60;8.77;;;6.80;99.90;;;;;;5050470;28;20184;-75
2020/12/18 04:00:45;;;;;;;11.10;10.00;;;6.80;99.90;;;;;;5052313;28;20185;-75
2020/12/18 04:03:11;;;;;;;9.27;8.50;;;6.80;99.90;;;;;;5049012;28;20915;-75
2020/12/18 04:05:37;;;;;;;12.40;9.23;;;6.80;99.90;;;;;;5049921;28;20185;-75
2020/12/18 04:08:02;;;;;;;9.40;8.50;;;6.80;99.90;;;;;;5050247;28;21391;-75
2020/12/18 04:10:28;;;;;;;12.90;8.53;;;6.70;99.90;;;;;;5052412;28;20193;-75
2020/12/18 04:12:54;;;;;;;11.67;8.30;;;6.70;99.90;;;;;;5050068;28;20184;-75
2020/12/18 04:15:19;;;;;;;9.87;8.87;;;6.60;99.90;;;;;;5050104;28;20231;-75
2020/12/18 04:17:45;;;;;;;10.73;7.93;;;6.60;99.90;;;;;;5050137;28;20203;-75
2020/12/18 04:20:11;;;;;;;9.90;8.87;;;6.60;99.90;;;;;;5051102;28;20182;-75
2020/12/18 04:22:37;;;;;;;12.40;8.90;;;6.50;99.90;;;;;;5050551;28;20528;-75
2020/12/18 04:25:04;;;;;;;10.57;8.00;;;6.50;99.90;;;;;;5051881;28;20442;-75
2020/12/18 04:27:30;;;;;;;12.13;9.17;;;6.50;99.90;;;;;;5050426;28;20201;-75
2020/12/18 04:29:56;;;;;;;10.80;8.63;;;6.40;99.90;;;;;;5049925;28;20427;-75
2020/12/18 04:32:22;;;;;;;9.63;8.63;;;6.40;99.90;;;;;;5049817;28;20569;-75
2020/12/18 04:34:48;;;;;;;8.87;8.00;;;6.40;99.90;;;;;;5049892;28;20320;-75
2020/12/18 04:37:13;;;;;;;11.33;8.13;;;6.40;99.90;;;;;;5051606;28;20435;-76
2020/12/18 04:39:39;;;;;;;11.63;7.87;;;6.40;99.90;;;;;;5048850;28;20447;-75
2020/12/18 04:42:05;;;;;;;11.67;9.17;;;6.30;99.90;;;;;;5051170;28;20644;-75
2020/12/18 04:44:31;;;;;;;19.43;8.93;;;6.30;99.90;;;;;;5050559;28;20322;-75
2020/12/18 04:46:58;;;;;;;10.30;8.40;;;6.30;99.90;;;;;;5041474;28;20227;-76
2020/12/18 04:49:25;;;;;;;11.60;9.17;;;6.30;99.90;;;;;;5050935;28;20646;-75
2020/12/18 04:51:53;;;;;;;17.77;9.70;;;6.30;99.90;;;;;;5050198;28;20510;-75
2020/12/18 04:54:21;;;;;;;12.37;7.77;;;6.30;99.90;;;;;;5050615;28;20581;-75
2020/12/18 04:56:51;;;;;;;9.90;8.80;;;6.30;99.90;;;;;;5050146;28;20964;-76
2020/12/18 04:59:23;;;;;;;12.40;8.87;;;6.30;99.90;;;;;;5049325;28;20442;-75
2020/12/18 05:01:54;;;;;;;17.93;8.97;;;6.30;99.90;;;;;;5049464;28;20431;-76
2020/12/18 05:04:21;;;;;;;11.43;8.83;;;6.30;99.90;;;;;;5049939;28;20445;-76
2020/12/18 05:06:47;;;;;;;9.03;7.60;;;6.40;99.90;;;;;;5057808;28;20561;-76
2020/12/18 05:09:13;;;;;;;13.30;8.80;;;6.30;99.90;;;;;;5049134;28;20427;-75
2020/12/18 05:11:39;;;;;;;8.43;7.53;;;6.40;99.90;;;;;;5050833;28;20477;-75
2020/12/18 05:14:04;;;;;;;11.83;8.33;;;6.30;99.90;;;;;;5049736;28;20234;-75
2020/12/18 05:16:30;;;;;;;10.20;8.30;;;6.30;99.90;;;;;;5046717;28;20188;-75
2020/12/18 05:19:03;;;;;;;10.93;8.20;;;6.20;99.90;;;;;;5049977;28;20188;-75
2020/12/18 05:21:29;;;;;;;13.07;9.13;;;6.20;99.90;;;;;;5050524;28;20212;-75
2020/12/18 05:23:55;;;;;;;15.70;9.03;;;6.20;99.90;;;;;;5049458;28;20435;-75
2020/12/18 05:26:28;;;;;;;9.83;8.70;;;6.10;99.90;;;;;;5049917;28;20547;-75
2020/12/18 05:29:06;;;;;;;15.53;9.30;;;6.10;99.90;;;;;;5048016;28;21059;-75
2020/12/18 05:31:32;;;;;;;14.50;8.30;;;6.10;99.90;;;;;;5049603;28;20428;-75
2020/12/18 05:34:03;;;;;;;9.80;8.40;;;6.10;99.90;;;;;;5049273;28;20817;-75
2020/12/18 05:36:30;;;;;;;16.03;9.10;;;6.00;99.90;;;;;;5049125;28;20475;-75
2020/12/18 05:38:56;;;;;;;14.60;8.73;;;6.00;99.90;;;;;;5049735;28;20530;-75
2020/12/18 05:41:24;;;;;;;10.90;7.80;;;6.00;99.90;;;;;;5050232;28;20457;-75
2020/12/18 05:43:51;;;;;;;10.93;8.33;;;5.90;99.90;;;;;;5047737;28;20458;-75
2020/12/18 05:46:28;;;;;;;11.77;9.10;;;5.90;99.90;;;;;;5048889;28;21752;-75
2020/12/18 05:49:01;;;;;;;11.17;8.30;;;5.90;99.90;;;;;;5048603;28;20469;-75
2020/12/18 05:51:37;;;;;;;12.50;10.10;;;5.90;99.90;;;;;;5047181;28;20458;-75
2020/12/18 05:54:14;;;;;;;9.07;8.00;;;5.90;99.90;;;;;;5049541;28;20919;-75
2020/12/18 05:57:04;;;;;;;19.60;8.63;;;5.80;99.90;;;;;;5051172;28;20864;-75
2020/12/18 05:59:29;;;;;;;13.63;7.90;;;5.80;99.90;;;;;;5046112;28;20446;-75
2020/12/18 06:01:55;;;;;;;13.13;8.23;;;5.80;99.90;;;;;;5047749;28;20443;-75
2020/12/18 06:04:23;;;;;;;14.47;8.67;;;5.70;99.90;;;;;;5047417;28;20238;-75
2020/12/18 06:06:54;;;;;;;12.20;8.70;;;5.70;99.90;;;;;;5046933;28;20209;-76
2020/12/18 06:09:23;;;;;;;11.77;8.60;;;5.70;99.90;;;;;;5047517;28;20427;-76
2020/12/18 06:11:49;;;;;;;13.17;8.17;;;5.70;99.90;;;;;;5049165;28;20424;-76
2020/12/18 06:14:17;;;;;;;13.30;8.10;;;5.70;99.90;;;;;;5049559;28;20738;-75
2020/12/18 06:16:48;;;;;;;11.20;9.03;;;5.60;99.90;;;;;;5049435;28;20512;-75
2020/12/18 06:19:16;;;;;;;10.90;8.27;;;5.60;99.90;;;;;;5046141;28;20422;-75
2020/12/18 06:21:49;;;;;;;11.63;7.90;;;5.60;99.90;;;;;;5049468;28;20904;-75
2020/12/18 06:24:15;;;;;;;12.07;7.97;;;5.60;99.90;;;;;;5050395;28;20971;-76
2020/12/18 06:26:41;;;;;;;9.40;7.43;;;5.60;99.90;;;;;;5049103;28;20466;-76
2020/12/18 06:29:07;;;;;;;14.03;7.47;;;5.50;99.90;;;;;;5049405;28;20184;-75
2020/12/18 06:31:34;;;;;;;12.40;8.33;;;5.50;99.90;;;;;;5049081;28;20424;-76
2020/12/18 06:34:05;;;;;;;10.77;8.00;;;5.50;99.90;;;;;;5048630;28;20235;-76
2020/12/18 06:36:46;;;;;;;9.43;7.47;;;5.50;99.90;;;;;;5050634;28;20518;-76
2020/12/18 06:39:29;;;;;;;16.70;7.20;;;5.40;99.90;;;;;;5048618;28;20450;-76
2020/12/18 06:42:14;;;;;;;11.17;8.30;;;5.50;99.90;;;;;;5050095;28;21046;-76
2020/12/18 06:44:41;;;;;;;8.10;6.93;;;5.40;99.90;;;;;;5050480;28;20451;-75
2020/12/18 06:47:12;;;;;;;10.27;6.70;;;5.40;99.90;;;;;;5050041;28;20461;-76
2020/12/18 06:49:56;;;;;;;10.27;6.67;;;5.40;99.90;;;;;;5051652;28;20446;-75
2020/12/18 06:52:46;;;;;;;12.27;6.37;;;5.40;99.90;;;;;;5052013;28;20435;-75
2020/12/18 06:55:25;;;;;;;12.60;7.30;;;5.30;99.90;;;;;;5053480;28;20746;-75
2020/12/18 06:58:11;;;;;;;10.40;6.30;;;5.30;99.90;;;;;;5049219;28;20940;-75
2020/12/18 07:00:55;;;;;;;13.73;7.40;;;5.30;99.90;;;;;;5049440;28;20461;-75
2020/12/18 07:03:36;;;;;;;9.97;6.23;;;5.30;99.90;;;;;;5051513;28;20739;-75
2020/12/18 07:06:23;;;;;;;12.17;6.87;;;5.30;99.90;;;;;;5045786;28;20459;-75
2020/12/18 07:08:49;;;;;;;8.17;6.00;;;5.30;99.90;;;;;;5049250;28;20425;-75
2020/12/18 07:11:18;;;;;;;12.43;6.40;;;5.30;99.90;;;;;;5050436;28;20466;-75
2020/12/18 07:13:47;;;;;;;12.47;6.53;;;5.30;99.90;;;;;;5047945;28;20430;-75
2020/12/18 07:16:16;;;;;;;7.70;6.90;;;5.20;99.90;;;;;;5041710;28;20500;-76
2020/12/18 07:18:43;;;;;;;8.33;6.27;;;5.30;99.90;;;;;;5049429;28;20430;-75
2020/12/18 07:21:14;;;;;;;6.80;6.17;;;5.30;99.90;;;;;;5051719;28;20529;-75
2020/12/18 07:23:42;;;;;;;7.00;6.30;;;5.30;99.90;;;;;;5050563;28;20427;-76
2020/12/18 07:26:10;;;;;;;7.63;5.67;;;5.30;99.90;;;;;;5052202;28;20454;-75
2020/12/18 07:28:39;;;;;;;8.70;6.07;;;5.30;99.90;;;;;;5043997;28;20501;-78
2020/12/18 07:31:12;;;;;;;6.13;5.53;;;5.40;99.90;;;;;;5043479;28;20431;-77
2020/12/18 07:33:38;;;;;;;11.60;7.57;;;5.30;99.90;;;;;;5043770;28;20493;-78
2020/12/18 07:36:04;;;;;;;10.10;6.50;;;5.40;99.90;;;;;;5050352;28;20423;-78
2020/12/18 07:38:32;;;;;;;8.73;5.90;;;5.40;99.90;;;;;;5046675;28;20188;-78
2020/12/18 07:41:03;;;;;;;10.60;5.97;;;5.40;99.90;;;;;;5045886;28;20462;-78
2020/12/18 07:43:31;;;;;;;8.63;7.10;;;5.40;99.90;;;;;;5045946;28;20427;-78
2020/12/18 07:46:01;;;;;;;11.70;7.40;;;5.40;99.90;;;;;;5047707;28;20508;-77
2020/12/18 07:48:30;;;;;;;7.60;5.90;;;5.30;99.90;;;;;;5044872;28;20542;-77
2020/12/18 07:50:58;;;;;;;12.47;7.33;;;5.30;99.90;;;;;;5044643;28;20427;-78
2020/12/18 07:53:25;;;;;;;14.73;8.43;;;5.40;99.90;;;;;;5046774;28;20442;-77
2020/12/18 07:56:07;;;;;;;17.13;7.53;;;5.30;99.90;;;;;;5040461;28;20427;-77
2020/12/18 07:58:45;;;;;;;11.70;7.90;;;5.40;99.90;;;;;;5048925;28;20428;-78
2020/12/18 08:01:20;;;;;;;16.57;7.53;;;5.30;99.90;;;;;;5046573;28;20830;-78
2020/12/18 08:04:02;;;;;;;11.43;7.53;;;5.30;99.90;;;;;;5046729;28;20427;-78
2020/12/18 08:06:32;;;;;;;10.60;8.13;;;5.30;99.90;;;;;;5046715;28;21043;-78
2020/12/18 08:09:07;;;;;;;10.00;6.80;;;5.30;99.90;;;;;;5043741;28;20563;-77
2020/12/18 08:11:35;;;;;;;8.17;6.20;;;5.30;99.90;;;;;;5044242;28;20457;-78
2020/12/18 08:14:03;;;;;;;11.30;6.03;;;5.30;99.90;;;;;;5041779;28;20424;-78
2020/12/18 08:16:31;;;;;;;7.67;5.40;;;5.30;99.90;;;;;;5043346;28;23209;-78
2020/12/18 08:18:58;;;;;;;7.40;5.40;;;5.30;99.90;;;;;;5042642;28;20462;-78
2020/12/18 08:21:26;;;;;;;9.07;6.30;;;5.40;99.90;;;;;;5041414;28;20446;-79
2020/12/18 08:23:55;;;;;;;9.40;5.83;;;5.40;99.90;;;;;;5043052;28;20729;-79
2020/12/18 08:26:23;;;;;;;10.17;5.57;;;5.40;99.90;;;;;;5040132;28;20505;-76
2020/12/18 08:28:50;;;;;;;5.67;4.63;;;5.40;99.90;;;;;;5036928;28;20430;-77
2020/12/18 08:31:17;;;;;;;7.50;5.73;;;5.40;99.90;;;;;;5044612;28;20980;-76
2020/12/18 08:33:52;;;;;;;13.77;6.20;;;5.40;99.90;;;;;;5047093;28;20423;-76
2020/12/18 08:36:18;;;;;;;7.53;5.73;;;5.40;99.90;;;;;;5047702;28;20921;-76
2020/12/18 08:39:06;;;;;;;5.10;4.60;;;5.50;99.90;;;;;;5046149;28;20435;-76
2020/12/18 08:41:53;;;;;;;9.50;5.33;;;5.50;99.90;;;;;;5045604;28;20506;-76
2020/12/18 08:44:27;;;;;;;6.73;4.80;;;5.50;99.90;;;;;;5047511;28;20434;-76
2020/12/18 08:46:53;;;;;;;4.60;4.20;;;5.60;99.90;;;;;;5050386;28;20512;-76
2020/12/18 08:49:27;;;;;;;7.53;4.33;;;5.70;99.90;;;;;;5050606;28;20420;-76
2020/12/18 08:52:02;;;;;;;7.90;5.47;;;5.70;99.90;;;;;;5049757;28;20903;-76
2020/12/18 08:54:35;;;;;;;7.73;5.50;;;5.70;99.90;;;;;;5048495;28;20501;-76
2020/12/18 08:57:11;;;;;;;10.40;5.73;;;5.70;99.90;;;;;;5056883;28;20431;-76
2020/12/18 08:59:38;;;;;;;5.23;4.73;;;5.80;99.90;;;;;;5048992;28;20427;-76
2020/12/18 09:02:13;;;;;;;6.13;5.60;;;5.80;99.90;;;;;;5046493;28;20427;-76
2020/12/18 09:04:39;;;;;;;6.77;6.07;;;5.80;99.90;;;;;;5041190;28;20446;-76
2020/12/18 09:07:05;;;;;;;7.17;6.40;;;5.90;99.90;;;;;;5048788;28;20456;-76
2020/12/18 09:09:30;;;;;;;9.50;5.63;;;5.90;99.90;;;;;;5051156;28;20677;-77
2020/12/18 09:11:56;;;;;;;5.60;5.10;;;5.90;99.90;;;;;;5052370;28;20243;-76
2020/12/18 09:14:29;;;;;;;9.03;5.57;;;5.90;99.90;;;;;;5043994;28;20196;-76
2020/12/18 09:16:58;;;;;;;8.87;5.10;;;6.00;99.90;;;;;;5052713;28;20189;-76
2020/12/18 09:19:24;;;;;;;7.40;4.83;;;6.00;99.90;;;;;;5050889;28;21022;-76
2020/12/18 09:21:50;;;;;;;7.57;4.90;;;6.00;99.90;;;;;;5049569;28;20490;-76
2020/12/18 09:24:19;;;;;;;7.00;5.20;;;6.00;99.90;;;;;;5049229;28;20481;-76
2020/12/18 09:26:46;;;;;;;8.83;5.20;;;6.10;99.90;;;;;;5047154;28;20463;-76
2020/12/18 09:29:18;;;;;;;6.60;4.47;;;6.10;99.90;;;;;;5046156;28;20990;-76
2020/12/18 09:31:46;;;;;;;5.53;4.80;;;6.20;99.90;;;;;;5045832;28;20540;-76
2020/12/18 09:34:16;;;;;;;5.60;5.07;;;6.30;99.90;;;;;;5043978;28;20462;-76
2020/12/18 09:36:42;;;;;;;5.27;4.70;;;6.40;99.90;;;;;;5045472;28;20764;-76
2020/12/18 09:39:08;;;;;;;5.63;4.87;;;6.40;99.90;;;;;;5049021;28;20936;-80
2020/12/18 09:41:34;;;;;;;6.37;5.73;;;6.50;99.90;;;;;;5051129;28;20431;-82
2020/12/18 09:44:00;;;;;;;4.80;4.40;;;6.60;99.90;;;;;;5046366;28;20430;-80
2020/12/18 09:46:26;;;;;;;4.80;4.40;;;6.60;99.90;;;;;;5049273;28;20274;-80
2020/12/18 09:48:52;;;;;;;4.80;4.40;;;6.60;99.90;;;;;;5049809;28;20597;-79
2020/12/18 09:51:18;;;;;;;4.70;4.30;;;6.60;99.90;;;;;;5054394;28;20447;-78
2020/12/18 09:53:45;;;;;;;6.70;4.67;;;6.70;99.90;;;;;;5054341;28;20459;-73
2020/12/18 09:56:12;;;;;;;7.00;4.40;;;6.70;99.90;;;;;;5046818;28;20526;-76
2020/12/18 09:58:38;;;;;;;7.93;3.90;;;6.70;99.90;;;;;;5051353;28;20415;-76
2020/12/18 10:01:05;;;;;;;5.43;4.43;;;6.70;99.90;;;;;;5045908;28;20435;-78
2020/12/18 10:03:31;;;;;;;4.70;3.97;;;6.80;99.90;;;;;;5042266;28;20442;-78
2020/12/18 10:05:57;;;;;;;5.30;3.90;;;6.80;99.90;;;;;;5053361;28;20491;-78
2020/12/18 10:08:22;;;;;;;7.17;4.40;;;6.80;99.90;;;;;;5049458;28;20526;-78
2020/12/18 10:10:48;;;;;;;4.80;3.87;;;6.70;99.90;;;;;;5051311;28;20184;-78
2020/12/18 10:13:14;;;;;;;6.10;3.77;;;6.70;99.90;;;;;;5055483;28;20609;-79
2020/12/18 10:15:40;;;;;;;5.30;4.47;;;6.80;99.90;;;;;;5051670;28;20169;-76
2020/12/18 10:18:06;;;;;;;6.00;4.33;;;6.80;99.90;;;;;;5048857;28;20438;-79
2020/12/18 10:20:33;;;;;;;4.23;3.77;;;6.80;99.90;;;;;;5053313;28;20435;-73
2020/12/18 10:22:58;;;;;;;5.60;3.30;;;6.80;99.90;;;;;;5053242;28;20185;-80
2020/12/18 10:25:24;;;;;;;4.03;3.60;;;6.80;99.90;;;;;;5050875;28;20431;-79
2020/12/18 10:27:50;;;;;;;4.77;4.37;;;6.80;99.90;;;;;;5048759;28;20200;-79
2020/12/18 10:30:16;;;;;;;4.40;3.77;;;6.90;99.90;;;;;;5050255;28;20180;-79
2020/12/18 10:32:42;;;;;;;3.10;2.90;;;7.00;99.90;;;;;;5046646;28;20177;-79
2020/12/18 10:35:09;;;;;;;5.23;3.53;;;7.10;99.90;;;;;;5049888;28;20883;-79
2020/12/18 10:37:35;;;;;;;4.27;3.87;;;7.20;99.90;;;;;;5048744;28;20450;-78
2020/12/18 10:40:03;;;;;;;5.30;4.03;;;7.40;99.90;;;;;;5035965;28;20447;-78
2020/12/18 10:42:29;;;;;;;4.27;3.87;;;7.50;99.90;;;;;;5045751;28;20489;-76
2020/12/18 10:44:55;;;;;;;6.80;3.17;;;7.50;99.90;;;;;;5048176;28;20447;-78
2020/12/18 10:47:21;;;;;;;3.47;3.13;;;7.60;99.90;;;;;;5037878;28;20471;-79
2020/12/18 10:49:47;;;;;;;4.17;3.77;;;7.70;99.90;;;;;;5046054;28;20259;-75
2020/12/18 10:52:12;;;;;;;3.77;3.47;;;7.80;99.90;;;;;;5045930;28;20181;-77
2020/12/18 10:54:38;;;;;;;3.30;3.00;;;7.90;99.90;;;;;;5044030;28;20179;-77
2020/12/18 10:57:04;;;;;;;5.10;3.13;;;7.90;99.90;;;;;;5048537;28;20192;-76
2020/12/18 10:59:31;;;;;;;5.83;3.20;;;8.00;99.90;;;;;;5047810;28;20435;-78
2020/12/18 11:01:58;;;;;;;3.90;3.50;;;8.00;99.90;;;;;;5050712;28;20178;-78
2020/12/18 11:04:24;;;;;;;3.43;2.63;;;8.20;99.90;;;;;;5063935;28;20432;-77
2020/12/18 11:06:50;;;;;;;4.70;3.80;;;8.30;99.90;;;;;;5048163;28;20812;-79
2020/12/18 11:09:17;;;;;;;3.13;2.93;;;8.40;99.90;;;;;;5045713;28;20440;-76
2020/12/18 11:11:49;;;;;;;3.83;3.40;;;8.50;99.90;;;;;;5048283;28;20693;-78
2020/12/18 11:14:15;;;;;;;4.00;3.30;;;8.40;99.90;;;;;;5050158;28;20420;-75
2020/12/18 11:16:41;;;;;;;3.80;3.40;;;8.50;99.90;;;;;;5046406;28;20923;-77
2020/12/18 11:19:07;;;;;;;4.70;2.90;;;8.60;99.90;;;;;;5043922;28;20264;-75
2020/12/18 11:21:32;;;;;;;3.20;2.60;;;8.60;99.90;;;;;;5044383;28;20223;-75
2020/12/18 11:23:59;;;;;;;5.00;2.97;;;8.70;99.90;;;;;;5044272;28;20427;-75
2020/12/18 11:26:25;;;;;;;4.27;2.90;;;8.90;99.90;;;;;;5046633;28;20259;-76
2020/12/18 11:28:52;;;;;;;5.57;2.97;;;9.00;99.90;;;;;;5047286;28;20439;-75
2020/12/18 11:31:18;;;;;;;3.53;2.60;;;9.10;99.90;;;;;;5051050;28;20432;-77
2020/12/18 11:33:43;;;;;;;5.30;2.73;;;9.10;99.90;;;;;;5041122;28;20439;-76
2020/12/18 11:36:09;;;;;;;2.83;2.50;;;9.20;99.90;;;;;;5048515;28;20427;-76
2020/12/18 11:38:35;;;;;;;3.27;2.97;;;9.20;99.90;;;;;;5048581;28;20440;-77
2020/12/18 11:41:01;;;;;;;2.90;2.60;;;9.20;99.90;;;;;;5042005;28;20228;-77
2020/12/18 11:43:27;;;;;;;4.20;2.97;;;9.30;99.90;;;;;;5050621;28;20227;-77
2020/12/18 11:45:52;;;;;;;2.70;2.40;;;9.30;99.90;;;;;;5049057;28;20272;-77
2020/12/18 11:48:18;;;;;;;4.20;2.50;;;9.30;99.90;;;;;;5050318;28;20200;-77
2020/12/18 11:50:46;;;;;;;3.10;2.53;;;9.30;99.90;;;;;;5052562;28;20184;-78
2020/12/18 11:53:12;;;;;;;4.90;2.60;;;9.30;99.90;;;;;;5045261;28;20516;-77
2020/12/18 11:55:38;;;;;;;3.30;3.03;;;9.20;99.90;;;;;;5046888;28;20483;-79
2020/12/18 11:58:03;;;;;;;4.63;2.63;;;9.10;99.90;;;;;;5045805;28;21047;-76
2020/12/18 12:00:30;;;;;;;6.10;3.43;;;9.20;99.90;;;;;;5048491;28;20451;-76
2020/12/18 12:02:56;;;;;;;3.20;2.67;;;9.10;99.90;;;;;;5048504;28;20509;-78
2020/12/18 12:05:23;;;;;;;5.93;4.30;;;9.10;99.90;;;;;;5052103;28;20518;-76
2020/12/18 12:07:50;;;;;;;2.70;2.50;;;9.20;99.90;;;;;;5051413;28;20467;-76
2020/12/18 12:10:19;;;;;;;2.27;2.07;;;9.20;99.90;;;;;;5053456;28;20431;-77
2020/12/18 12:12:48;;;;;;;5.40;2.30;;;9.20;99.90;;;;;;5052329;28;20493;-76
2020/12/18 12:15:15;;;;;;;3.97;1.77;;;9.20;99.90;;;;;;5052369;28;20500;-77
2020/12/18 12:17:41;;;;;;;3.53;2.50;;;9.30;99.90;;;;;;5050670;28;20446;-76
2020/12/18 12:20:07;;;;;;;1.90;1.77;;;9.30;99.90;;;;;;5052574;28;20435;-76
2020/12/18 12:22:33;;;;;;;4.20;3.80;;;9.30;99.90;;;;;;5052595;28;20209;-76
2020/12/18 12:24:59;;;;;;;2.20;2.10;;;9.40;99.90;;;;;;5051769;28;20435;-76
2020/12/18 12:27:26;;;;;;;2.90;2.47;;;9.50;99.90;;;;;;5049282;28;20209;-76
2020/12/18 12:29:52;;;;;;;5.00;3.50;;;9.50;99.90;;;;;;5050689;28;20504;-77
2020/12/18 12:32:19;;;;;;;5.30;2.53;;;9.60;99.90;;;;;;5051231;28;20455;-77
2020/12/18 12:34:44;;;;;;;4.87;3.33;;;9.60;99.90;;;;;;5049905;28;20560;-79
2020/12/18 12:37:11;;;;;;;3.40;1.93;;;9.70;99.90;;;;;;5049595;28;20459;-76
2020/12/18 12:39:38;;;;;;;2.20;2.00;;;9.70;99.90;;;;;;5048835;28;20439;-77
2020/12/18 12:42:04;;;;;;;5.47;2.27;;;9.70;99.90;;;;;;5047979;28;20465;-76
2020/12/18 12:44:31;;;;;;;3.40;2.27;;;9.70;99.90;;;;;;5050152;28;20439;-78
2020/12/18 12:46:57;;;;;;;4.77;2.30;;;9.80;99.90;;;;;;5051567;28;20467;-79
2020/12/18 12:49:23;;;;;;;4.20;2.40;;;9.90;99.90;;;;;;5036082;28;20438;-80
2020/12/18 12:51:56;;;;;;;2.27;1.97;;;9.90;99.90;;;;;;5048199;28;20432;-80
2020/12/18 12:54:22;;;;;;;2.20;1.80;;;9.90;99.90;;;;;;5050791;28;20439;-79
2020/12/18 12:56:48;;;;;;;4.20;2.27;;;9.80;99.90;;;;;;5051206;28;20431;-79